Time;durP1;ratioP1;P1;durP2;ratioP2;P2;SDS_P1;SDS_P2;PMS_P1;PMS_P2;Temp;Humidity;BMP_temperature;BMP_pressure;BME280_temperature;BME280_humidity;BME280_pressure;Samples;Min_cycle;Max_cycle;Signal;HPM_P1;HPM_P2
2023/04/26 00:02:11;;;;;;;6.45;2.15;;;4.70;99.90;;;;;;5036963;28;20041;-41
2023/04/26 00:04:38;;;;;;;6.68;2.20;;;4.70;99.90;;;;;;5051652;28;20045;-35
2023/04/26 00:07:04;;;;;;;6.75;1.80;;;4.70;99.90;;;;;;5034293;28;20088;-41
2023/04/26 00:09:30;;;;;;;12.95;3.47;;;4.70;99.90;;;;;;5035469;28;20047;-41
2023/04/26 00:11:56;;;;;;;4.75;2.10;;;4.70;99.90;;;;;;5031152;28;20048;-43
2023/04/26 00:14:22;;;;;;;8.18;2.00;;;4.60;99.90;;;;;;5037053;28;20497;-36
2023/04/26 00:16:47;;;;;;;4.93;2.40;;;4.50;99.90;;;;;;5025135;28;20439;-39
2023/04/26 00:19:14;;;;;;;6.10;2.25;;;4.40;99.90;;;;;;5033726;28;20099;-39
2023/04/26 00:21:40;;;;;;;5.90;1.95;;;4.30;99.90;;;;;;5037050;28;20517;-40
2023/04/26 00:24:06;;;;;;;4.22;2.08;;;4.20;99.90;;;;;;5034695;28;20044;-38
2023/04/26 00:26:33;;;;;;;6.53;2.08;;;4.20;99.90;;;;;;5014472;28;20142;-35
2023/04/26 00:28:59;;;;;;;6.57;2.00;;;4.10;99.90;;;;;;5031119;28;20045;-41
2023/04/26 00:31:25;;;;;;;5.10;2.05;;;4.00;99.90;;;;;;5028329;28;20153;-40
2023/04/26 00:33:51;;;;;;;4.68;2.38;;;3.90;99.90;;;;;;5051101;28;20443;-36
2023/04/26 00:36:18;;;;;;;9.05;2.40;;;3.90;99.90;;;;;;5035315;28;20498;-36
2023/04/26 00:38:47;;;;;;;6.03;2.40;;;3.80;99.90;;;;;;5035423;28;20052;-42
2023/04/26 00:41:13;;;;;;;6.88;2.10;;;3.70;99.90;;;;;;5033498;28;20429;-36
2023/04/26 00:43:39;;;;;;;7.95;2.63;;;3.70;99.90;;;;;;5035509;28;20049;-47
2023/04/26 00:46:09;;;;;;;7.85;2.67;;;3.70;99.90;;;;;;5035823;28;20049;-41
2023/04/26 00:48:36;;;;;;;7.88;2.35;;;3.60;99.90;;;;;;5036046;28;20045;-42
2023/04/26 00:51:03;;;;;;;8.60;2.75;;;3.50;99.90;;;;;;5035747;28;20073;-46
2023/04/26 00:53:30;;;;;;;5.47;2.22;;;3.60;99.90;;;;;;5034243;28;20056;-39
2023/04/26 00:55:57;;;;;;;6.28;2.17;;;3.60;99.90;;;;;;5036080;28;20052;-41
2023/04/26 00:58:22;;;;;;;7.05;2.35;;;3.60;99.90;;;;;;5035657;28;20389;-38
2023/04/26 01:00:49;;;;;;;5.45;2.28;;;3.70;99.90;;;;;;5027418;28;20178;-37
2023/04/26 01:03:15;;;;;;;9.20;2.70;;;3.90;99.90;;;;;;5030528;28;20057;-40
2023/04/26 01:05:41;;;;;;;7.50;2.83;;;4.00;99.90;;;;;;5027491;28;20548;-39
2023/04/26 01:08:07;;;;;;;11.25;2.65;;;4.00;99.90;;;;;;5022344;28;20044;-41
2023/04/26 01:10:33;;;;;;;6.35;2.33;;;4.10;99.90;;;;;;5035221;28;20053;-38
2023/04/26 01:13:00;;;;;;;8.25;2.50;;;4.20;99.90;;;;;;5034737;28;20395;-37
2023/04/26 01:15:27;;;;;;;6.55;2.67;;;4.30;99.90;;;;;;5035100;28;20045;-39
2023/04/26 01:17:53;;;;;;;11.52;3.75;;;4.30;99.90;;;;;;5035863;28;20072;-40
2023/04/26 01:20:19;;;;;;;6.30;2.53;;;4.30;99.90;;;;;;5035010;28;20143;-43
2023/04/26 01:22:45;;;;;;;9.75;2.83;;;4.40;99.90;;;;;;5035908;28;20966;-36
2023/04/26 01:25:11;;;;;;;9.23;3.10;;;4.40;99.90;;;;;;5022312;28;20049;-37
2023/04/26 01:27:37;;;;;;;6.50;2.50;;;4.40;99.90;;;;;;5034633;28;20098;-41
2023/04/26 01:30:04;;;;;;;7.10;2.42;;;4.40;99.90;;;;;;5024444;28;20049;-40
2023/04/26 01:32:29;;;;;;;5.80;2.40;;;4.40;99.90;;;;;;5033727;28;20045;-38
2023/04/26 01:34:56;;;;;;;12.88;2.72;;;4.40;99.90;;;;;;5035818;28;20557;-35
2023/04/26 01:37:21;;;;;;;11.30;3.55;;;4.40;99.90;;;;;;5034415;28;20049;-39
2023/04/26 01:39:47;;;;;;;8.35;2.95;;;4.40;99.90;;;;;;5035015;28;20045;-38
2023/04/26 01:42:13;;;;;;;5.10;2.65;;;4.50;99.90;;;;;;5035046;28;20523;-38
2023/04/26 01:44:38;;;;;;;7.10;3.28;;;4.50;99.90;;;;;;5034945;28;20396;-37
2023/04/26 01:47:05;;;;;;;9.30;2.83;;;4.50;99.90;;;;;;5021339;28;20313;-41
2023/04/26 01:49:31;;;;;;;8.73;2.80;;;4.50;99.90;;;;;;5021785;28;20053;-42
2023/04/26 01:51:58;;;;;;;6.03;2.28;;;4.40;99.90;;;;;;5034683;28;20140;-40
2023/04/26 01:54:23;;;;;;;6.38;2.55;;;4.40;99.90;;;;;;5035175;28;20056;-37
2023/04/26 01:56:49;;;;;;;7.10;2.15;;;4.30;99.90;;;;;;5034167;28;20040;-41
2023/04/26 01:59:15;;;;;;;5.63;2.05;;;4.20;99.90;;;;;;5027843;28;20053;-37
2023/04/26 02:01:45;;;;;;;10.20;3.65;;;4.20;99.90;;;;;;5028703;28;20045;-36
2023/04/26 02:04:10;;;;;;;5.57;2.05;;;4.10;99.90;;;;;;5034437;28;20114;-42
2023/04/26 02:06:40;;;;;;;8.23;2.50;;;4.00;99.90;;;;;;5033113;28;20053;-40
2023/04/26 02:09:08;;;;;;;6.20;2.15;;;3.90;99.90;;;;;;5034432;28;20045;-37
2023/04/26 02:11:34;;;;;;;6.05;2.30;;;3.80;99.90;;;;;;5034946;28;20114;-35
2023/04/26 02:14:00;;;;;;;7.05;2.20;;;3.80;99.90;;;;;;5033128;28;20048;-36
2023/04/26 02:16:26;;;;;;;8.77;2.70;;;3.70;99.90;;;;;;5034315;28;20137;-38
2023/04/26 02:18:52;;;;;;;4.07;1.88;;;3.60;99.90;;;;;;5035774;28;20050;-35
2023/04/26 02:21:18;;;;;;;6.93;2.53;;;3.50;99.90;;;;;;5037154;28;20128;-41
2023/04/26 02:23:44;;;;;;;7.10;2.95;;;3.50;99.90;;;;;;5038103;28;20429;-36
2023/04/26 02:26:11;;;;;;;6.13;2.80;;;3.50;99.90;;;;;;5037916;28;20045;-39
2023/04/26 02:28:37;;;;;;;8.25;2.97;;;3.40;99.90;;;;;;5024189;28;20116;-35
2023/04/26 02:31:03;;;;;;;9.90;2.88;;;3.40;99.90;;;;;;5027159;28;20565;-38
2023/04/26 02:33:28;;;;;;;7.72;3.55;;;3.30;99.90;;;;;;5024726;28;20056;-40
2023/04/26 02:35:54;;;;;;;7.18;3.28;;;3.30;99.90;;;;;;5038460;28;20048;-37
2023/04/26 02:38:20;;;;;;;7.70;3.58;;;3.30;99.90;;;;;;5039227;28;20120;-40
2023/04/26 02:40:46;;;;;;;9.52;4.45;;;3.30;99.90;;;;;;5038712;28;20439;-37
2023/04/26 02:43:11;;;;;;;11.20;4.22;;;3.20;99.90;;;;;;5038451;28;20050;-41
2023/04/26 02:45:46;;;;;;;14.80;5.15;;;3.20;99.90;;;;;;5037980;28;20045;-37
2023/04/26 02:48:12;;;;;;;8.98;4.63;;;3.20;99.90;;;;;;5038058;28;20059;-36
2023/04/26 02:50:37;;;;;;;8.23;4.68;;;3.10;99.90;;;;;;5036959;28;20040;-40
2023/04/26 02:53:03;;;;;;;10.18;4.85;;;3.10;99.90;;;;;;5037750;28;20053;-41
2023/04/26 02:55:28;;;;;;;12.15;4.95;;;3.10;99.90;;;;;;5037001;28;20049;-39
2023/04/26 02:57:54;;;;;;;10.20;4.60;;;3.10;99.90;;;;;;5035739;28;20154;-41
2023/04/26 03:00:21;;;;;;;11.00;4.15;;;3.00;99.90;;;;;;5023759;28;20063;-40
2023/04/26 03:02:47;;;;;;;12.05;4.00;;;3.00;99.90;;;;;;5037049;28;20132;-36
2023/04/26 03:05:12;;;;;;;5.85;3.25;;;3.00;99.90;;;;;;5036586;28;20097;-37
2023/04/26 03:07:38;;;;;;;8.85;3.88;;;3.00;99.90;;;;;;5033816;28;20041;-43
2023/04/26 03:10:04;;;;;;;10.50;4.63;;;2.90;99.90;;;;;;5037557;28;20358;-40
2023/04/26 03:12:30;;;;;;;8.85;3.40;;;3.00;99.90;;;;;;5037853;28;20106;-39
2023/04/26 03:14:58;;;;;;;6.72;3.38;;;2.90;99.90;;;;;;5027365;28;20458;-41
2023/04/26 03:17:23;;;;;;;5.95;3.25;;;2.90;99.90;;;;;;5017916;28;20041;-40
2023/04/26 03:19:49;;;;;;;5.90;3.00;;;2.90;99.90;;;;;;5042386;28;20047;-40
2023/04/26 03:22:15;;;;;;;8.68;3.28;;;2.90;99.90;;;;;;5038148;28;20081;-38
2023/04/26 03:24:42;;;;;;;6.88;3.10;;;2.90;99.90;;;;;;5037168;28;20483;-36
2023/04/26 03:27:08;;;;;;;8.95;3.40;;;2.80;99.90;;;;;;5035023;28;20118;-35
2023/04/26 03:29:33;;;;;;;6.40;3.55;;;2.80;99.90;;;;;;5017617;28;20053;-38
2023/04/26 03:31:59;;;;;;;7.70;3.08;;;2.80;99.90;;;;;;5032411;28;20103;-38
2023/04/26 03:34:26;;;;;;;5.25;3.30;;;2.80;99.90;;;;;;5037570;28;20406;-38
2023/04/26 03:36:51;;;;;;;11.07;3.30;;;2.80;99.90;;;;;;5036709;28;20163;-35
2023/04/26 03:39:17;;;;;;;11.20;3.40;;;2.80;99.90;;;;;;5037177;28;20415;-34
2023/04/26 03:41:43;;;;;;;10.02;3.20;;;2.70;99.90;;;;;;5037315;28;20052;-41
2023/04/26 03:44:09;;;;;;;8.05;2.70;;;2.70;99.90;;;;;;5027237;28;20057;-40
2023/04/26 03:46:34;;;;;;;7.32;3.20;;;2.70;99.90;;;;;;5029980;28;20045;-38
2023/04/26 03:49:00;;;;;;;6.68;2.92;;;2.70;99.90;;;;;;5026449;28;20048;-37
2023/04/26 03:51:27;;;;;;;10.27;3.10;;;2.60;99.90;;;;;;5037295;28;20041;-44
2023/04/26 03:53:53;;;;;;;7.68;2.88;;;2.60;99.90;;;;;;5037988;28;20044;-34
2023/04/26 03:56:18;;;;;;;12.55;3.25;;;2.60;99.90;;;;;;5036849;28;20049;-39
2023/04/26 03:58:46;;;;;;;8.25;2.80;;;2.60;99.90;;;;;;5033345;28;20557;-39
2023/04/26 04:01:11;;;;;;;8.90;2.70;;;2.50;99.90;;;;;;5025154;28;20091;-38
2023/04/26 04:03:37;;;;;;;5.70;2.88;;;2.50;99.90;;;;;;5034899;28;20049;-37
2023/04/26 04:06:03;;;;;;;6.90;3.28;;;2.40;99.90;;;;;;5034341;28;20045;-39
2023/04/26 04:08:28;;;;;;;4.78;2.53;;;2.50;99.90;;;;;;5036026;28;20458;-41
2023/04/26 04:10:55;;;;;;;7.55;3.25;;;2.40;99.90;;;;;;5036561;28;20041;-36
2023/04/26 04:13:21;;;;;;;7.97;2.95;;;2.40;99.90;;;;;;5042827;28;20077;-39
2023/04/26 04:15:47;;;;;;;10.13;3.55;;;2.40;99.90;;;;;;5028952;28;20261;-38
2023/04/26 04:18:13;;;;;;;13.23;3.92;;;2.50;99.90;;;;;;5031170;28;20046;-39
2023/04/26 04:20:40;;;;;;;8.93;3.60;;;2.50;99.90;;;;;;5018991;28;20420;-37
2023/04/26 04:23:06;;;;;;;7.50;3.15;;;2.60;99.90;;;;;;5036566;28;20440;-37
2023/04/26 04:25:33;;;;;;;12.68;4.22;;;2.70;99.90;;;;;;5033624;28;20080;-37
2023/04/26 04:28:00;;;;;;;6.63;3.42;;;2.80;99.90;;;;;;5035420;28;20045;-38
2023/04/26 04:30:28;;;;;;;6.88;3.35;;;2.90;99.90;;;;;;5034084;28;20053;-44
2023/04/26 04:32:54;;;;;;;11.88;3.85;;;3.00;99.90;;;;;;5036478;28;20048;-37
2023/04/26 04:35:21;;;;;;;8.90;3.67;;;3.10;99.90;;;;;;5035046;28;20049;-41
2023/04/26 04:37:48;;;;;;;9.35;3.63;;;3.20;99.90;;;;;;5035423;28;20387;-35
2023/04/26 04:40:14;;;;;;;7.18;3.22;;;3.30;99.90;;;;;;5021658;28;20094;-38
2023/04/26 04:42:43;;;;;;;6.93;3.83;;;3.40;99.90;;;;;;5034592;28;20509;-39
2023/04/26 04:45:09;;;;;;;7.72;3.90;;;3.50;99.90;;;;;;5034770;28;20053;-37
2023/04/26 04:47:36;;;;;;;6.10;3.05;;;3.60;99.90;;;;;;5036533;28;20049;-41
2023/04/26 04:50:05;;;;;;;7.60;3.20;;;3.80;99.90;;;;;;5034333;28;20124;-36
2023/04/26 04:52:32;;;;;;;9.05;3.33;;;3.90;99.90;;;;;;5035738;28;20495;-38
2023/04/26 04:54:58;;;;;;;5.85;2.80;;;4.10;99.90;;;;;;5034904;28;20368;-36
2023/04/26 04:57:24;;;;;;;8.43;3.35;;;4.20;99.90;;;;;;5034160;28;20049;-38
2023/04/26 04:59:50;;;;;;;6.25;3.28;;;4.40;99.90;;;;;;5027361;28;20052;-38
2023/04/26 05:02:15;;;;;;;6.22;3.55;;;4.50;99.90;;;;;;5035417;28;20515;-38
2023/04/26 05:04:41;;;;;;;7.18;3.63;;;4.70;99.90;;;;;;5034620;28;20048;-37
2023/04/26 05:07:08;;;;;;;5.85;3.60;;;5.00;99.90;;;;;;5035193;28;20403;-38
2023/04/26 05:09:34;;;;;;;4.55;3.10;;;5.40;99.90;;;;;;5030273;28;20097;-38
2023/04/26 05:12:00;;;;;;;7.07;3.38;;;6.00;99.90;;;;;;5026795;28;20898;-41
2023/04/26 05:14:26;;;;;;;6.30;2.92;;;6.10;99.90;;;;;;5045379;28;20053;-40
2023/04/26 05:16:51;;;;;;;8.20;3.60;;;6.10;99.90;;;;;;5025356;28;20056;-37
2023/04/26 05:19:17;;;;;;;6.00;3.33;;;6.00;99.90;;;;;;5034287;28;20045;-37
2023/04/26 05:21:43;;;;;;;5.65;2.78;;;5.90;99.90;;;;;;5023960;28;20085;-38
2023/04/26 05:24:08;;;;;;;6.00;3.10;;;5.70;99.90;;;;;;5033159;28;20041;-39
2023/04/26 05:26:35;;;;;;;7.10;2.67;;;5.70;99.90;;;;;;5033787;28;20493;-39
2023/04/26 05:29:01;;;;;;;6.85;3.40;;;5.90;99.90;;;;;;5033065;28;20052;-40
2023/04/26 05:31:26;;;;;;;4.38;2.67;;;7.30;99.90;;;;;;5033643;28;20044;-43
2023/04/26 05:33:52;;;;;;;8.27;2.40;;;9.00;99.90;;;;;;5030287;28;20395;-38
2023/04/26 05:36:18;;;;;;;7.95;2.42;;;10.80;99.90;;;;;;5026091;28;20045;-38
2023/04/26 05:38:44;;;;;;;6.10;2.38;;;12.20;99.90;;;;;;5029327;28;20049;-40
2023/04/26 05:41:09;;;;;;;9.32;3.33;;;13.30;99.90;;;;;;5027036;28;20565;-41
2023/04/26 05:43:36;;;;;;;6.05;2.05;;;14.30;99.90;;;;;;5035312;28;20088;-44
2023/04/26 05:46:02;;;;;;;8.38;2.70;;;15.20;99.90;;;;;;5027544;28;20399;-45
2023/04/26 05:48:28;;;;;;;6.50;2.22;;;15.90;99.90;;;;;;5026393;28;20038;-35
2023/04/26 05:50:54;;;;;;;6.03;2.80;;;16.40;99.90;;;;;;5023202;28;20371;-39
2023/04/26 05:53:20;;;;;;;6.88;3.45;;;17.00;99.90;;;;;;5014789;28;20414;-42
2023/04/26 05:55:46;;;;;;;6.68;3.30;;;17.70;99.90;;;;;;5024451;28;20076;-44
2023/04/26 05:58:11;;;;;;;8.40;4.25;;;18.00;99.90;;;;;;5034350;28;20371;-38
2023/04/26 06:00:37;;;;;;;9.95;4.18;;;18.20;98.50;;;;;;5027831;28;20049;-41
2023/04/26 06:03:04;;;;;;;5.85;3.95;;;18.50;98.30;;;;;;5049835;28;20057;-47
2023/04/26 06:05:30;;;;;;;7.30;4.07;;;18.80;98.60;;;;;;5035362;28;20040;-40
2023/04/26 06:08:00;;;;;;;9.40;3.22;;;18.70;96.10;;;;;;5035093;28;20469;-48
2023/04/26 06:10:26;;;;;;;9.77;2.55;;;18.90;97.00;;;;;;5050637;28;20049;-43
2023/04/26 06:12:52;;;;;;;5.00;1.95;;;19.20;97.00;;;;;;5035733;28;20064;-38
2023/04/26 06:15:17;;;;;;;4.22;1.80;;;18.40;96.20;;;;;;5034981;28;20475;-42
2023/04/26 06:17:43;;;;;;;6.15;2.00;;;17.70;96.80;;;;;;5034720;28;20041;-42
2023/04/26 06:20:09;;;;;;;5.55;1.73;;;17.40;97.20;;;;;;5034379;28;20442;-43
2023/04/26 06:22:35;;;;;;;4.18;2.13;;;18.00;98.30;;;;;;5035107;28;20052;-43
2023/04/26 06:25:01;;;;;;;4.40;2.00;;;18.50;96.60;;;;;;5034298;28;20045;-43
2023/04/26 06:27:27;;;;;;;6.32;2.30;;;19.20;96.10;;;;;;5033650;28;20344;-43
2023/04/26 06:29:52;;;;;;;7.13;2.08;;;19.90;96.00;;;;;;5030315;28;20513;-37
2023/04/26 06:32:18;;;;;;;5.55;2.15;;;19.80;94.90;;;;;;5033863;28;20166;-44
2023/04/26 06:34:44;;;;;;;5.18;1.80;;;20.10;94.50;;;;;;5033981;28;20048;-39
2023/04/26 06:37:10;;;;;;;5.00;1.85;;;19.90;94.50;;;;;;5028180;28;20087;-38
2023/04/26 06:39:39;;;;;;;5.18;1.50;;;18.60;95.20;;;;;;5033139;28;20041;-43
2023/04/26 06:42:05;;;;;;;4.18;1.98;;;17.20;95.90;;;;;;5034361;28;20049;-37
2023/04/26 06:44:31;;;;;;;5.68;2.10;;;16.10;97.10;;;;;;5022561;28;20503;-40
2023/04/26 06:46:56;;;;;;;7.03;1.77;;;15.30;98.30;;;;;;5034407;28;20505;-45
2023/04/26 06:49:23;;;;;;;5.55;2.03;;;14.30;97.80;;;;;;5034202;28;20045;-37
2023/04/26 06:51:48;;;;;;;6.05;1.77;;;13.50;98.70;;;;;;5023599;28;20175;-45
2023/04/26 06:54:14;;;;;;;7.35;2.17;;;13.10;99.90;;;;;;5021263;28;20519;-42
2023/04/26 06:56:40;;;;;;;5.47;1.83;;;13.00;99.90;;;;;;5033146;28;20555;-43
2023/04/26 06:59:06;;;;;;;4.93;1.90;;;12.80;99.90;;;;;;5027640;28;20075;-43
2023/04/26 07:01:33;;;;;;;5.85;1.92;;;12.90;99.90;;;;;;5032269;28;20037;-41
2023/04/26 07:04:05;;;;;;;4.70;1.40;;;12.60;99.90;;;;;;5031448;28;20040;-39
2023/04/26 07:06:31;;;;;;;7.95;1.50;;;12.40;99.90;;;;;;5035346;28;20063;-44
2023/04/26 07:08:58;;;;;;;7.97;1.65;;;12.20;99.90;;;;;;5035688;28;20472;-42
2023/04/26 07:11:23;;;;;;;5.38;1.70;;;12.10;99.90;;;;;;5032632;28;20052;-43
2023/04/26 07:13:49;;;;;;;7.95;1.95;;;12.20;99.90;;;;;;5034698;28;20053;-47
2023/04/26 07:16:15;;;;;;;5.10;1.42;;;12.20;99.90;;;;;;5036299;28;20049;-43
2023/04/26 07:18:41;;;;;;;5.65;2.13;;;12.00;99.90;;;;;;5035876;28;20045;-42
2023/04/26 07:21:07;;;;;;;4.57;1.80;;;11.80;99.90;;;;;;5033601;28;20045;-41
2023/04/26 07:23:33;;;;;;;3.70;1.73;;;11.60;99.90;;;;;;5035957;28;20044;-36
2023/04/26 07:26:03;;;;;;;5.68;1.80;;;11.60;99.90;;;;;;5034810;28;20095;-40
2023/04/26 07:28:29;;;;;;;5.38;2.22;;;11.20;99.90;;;;;;5036900;28;20048;-40
2023/04/26 07:30:55;;;;;;;4.82;1.90;;;11.20;99.90;;;;;;5037455;28;20467;-41
2023/04/26 07:33:21;;;;;;;4.40;1.73;;;11.00;99.90;;;;;;5022800;28;20052;-41
2023/04/26 07:35:55;;;;;;;6.22;2.25;;;11.00;99.90;;;;;;5051721;28;20053;-46
2023/04/26 07:38:22;;;;;;;4.57;1.63;;;11.00;99.90;;;;;;5031944;28;20045;-41
2023/04/26 07:40:47;;;;;;;7.57;2.13;;;10.80;99.90;;;;;;5026729;28;20045;-39
2023/04/26 07:43:14;;;;;;;17.30;3.15;;;10.80;99.90;;;;;;5036587;28;20049;-43
2023/04/26 07:45:40;;;;;;;8.05;2.40;;;10.80;99.90;;;;;;5026745;28;20056;-44
2023/04/26 07:48:06;;;;;;;6.22;2.00;;;10.70;99.90;;;;;;5031255;28;20060;-41
2023/04/26 07:50:32;;;;;;;6.35;2.03;;;10.70;99.90;;;;;;5036041;28;20420;-43
2023/04/26 07:52:58;;;;;;;6.95;2.35;;;10.90;99.90;;;;;;5036856;28;20045;-37
2023/04/26 07:55:24;;;;;;;5.88;2.13;;;11.20;99.90;;;;;;5040273;28;20053;-44
2023/04/26 07:57:50;;;;;;;8.63;1.95;;;11.10;99.90;;;;;;5016580;28;20350;-47
2023/04/26 08:00:17;;;;;;;6.85;1.88;;;11.20;99.90;;;;;;5049587;28;20321;-43
2023/04/26 08:02:45;;;;;;;8.10;2.08;;;11.30;99.90;;;;;;5018121;28;20577;-41
2023/04/26 08:05:11;;;;;;;8.50;2.13;;;11.50;99.90;;;;;;5018769;28;20091;-41
2023/04/26 08:07:37;;;;;;;7.32;1.92;;;11.60;99.90;;;;;;5008406;28;20341;-39
2023/04/26 08:10:03;;;;;;;5.72;1.90;;;11.90;99.90;;;;;;5002965;28;20057;-43
2023/04/26 08:12:29;;;;;;;6.32;1.80;;;12.20;99.90;;;;;;5017278;28;20037;-44
2023/04/26 08:14:55;;;;;;;6.10;1.95;;;12.30;99.90;;;;;;5017433;28;20041;-36
2023/04/26 08:17:20;;;;;;;5.43;2.10;;;12.40;99.90;;;;;;5015436;28;20523;-40
2023/04/26 08:19:46;;;;;;;6.70;1.65;;;12.50;99.90;;;;;;5017179;28;20661;-42
2023/04/26 08:22:12;;;;;;;7.57;1.80;;;12.60;99.90;;;;;;5016243;28;20049;-42
2023/04/26 08:24:37;;;;;;;8.45;1.75;;;12.70;99.90;;;;;;5019701;28;20033;-40
2023/04/26 08:27:03;;;;;;;6.28;2.20;;;12.70;99.90;;;;;;5018944;28;20049;-36
2023/04/26 08:29:28;;;;;;;5.07;2.00;;;12.80;99.90;;;;;;5016991;28;20042;-39
2023/04/26 08:31:55;;;;;;;5.43;1.90;;;13.00;99.90;;;;;;5023031;28;20293;-41
2023/04/26 08:34:24;;;;;;;9.23;2.50;;;13.20;99.90;;;;;;5017885;28;20045;-42
2023/04/26 08:36:50;;;;;;;6.13;1.92;;;13.10;99.90;;;;;;5020763;28;20102;-39
2023/04/26 08:39:16;;;;;;;7.45;2.05;;;13.00;99.90;;;;;;5016406;28;20470;-41
2023/04/26 08:41:44;;;;;;;6.55;2.30;;;12.70;99.90;;;;;;5014796;28;20143;-45
2023/04/26 08:44:10;;;;;;;9.05;2.05;;;12.50;99.90;;;;;;5014055;28;20103;-40
2023/04/26 08:47:08;;;;;;;5.78;1.98;;;12.10;99.90;;;;;;5021569;28;20578;-38
2023/04/26 08:49:41;;;;;;;4.38;1.73;;;11.90;99.90;;;;;;5028480;28;20140;-38
2023/04/26 08:52:12;;;;;;;6.65;1.67;;;11.60;99.90;;;;;;5016807;28;20107;-37
2023/04/26 08:54:39;;;;;;;4.47;1.52;;;11.30;99.90;;;;;;5017786;28;20043;-41
2023/04/26 08:57:08;;;;;;;5.97;1.90;;;11.20;99.90;;;;;;5015976;28;20088;-40
2023/04/26 08:59:38;;;;;;;7.03;1.85;;;11.00;99.90;;;;;;5019646;28;20067;-42
2023/04/26 09:02:05;;;;;;;3.33;1.65;;;11.00;99.90;;;;;;5015293;28;20151;-44
2023/04/26 09:04:31;;;;;;;7.13;1.60;;;11.30;99.90;;;;;;5017167;28;20045;-43
2023/04/26 09:07:02;;;;;;;11.45;3.85;;;11.50;99.90;;;;;;5015487;28;20052;-41
2023/04/26 09:09:34;;;;;;;5.07;1.90;;;11.60;99.90;;;;;;5027366;28;20132;-45
2023/04/26 09:12:02;;;;;;;7.57;2.80;;;11.50;99.90;;;;;;5030719;28;20388;-39
2023/04/26 09:14:27;;;;;;;6.28;2.58;;;11.40;99.90;;;;;;5033514;28;20040;-42
2023/04/26 09:16:54;;;;;;;5.00;2.38;;;10.90;99.90;;;;;;5036306;28;20052;-45
2023/04/26 09:19:41;;;;;;;4.30;2.30;;;10.60;99.90;;;;;;5049700;28;20041;-41
2023/04/26 09:22:08;;;;;;;5.63;2.05;;;10.00;99.90;;;;;;5032870;28;20052;-38
2023/04/26 09:24:51;;;;;;;9.40;2.22;;;9.80;99.90;;;;;;5023751;28;20159;-43
2023/04/26 09:27:20;;;;;;;5.38;2.72;;;9.40;99.90;;;;;;5033572;28;20059;-40
2023/04/26 09:30:19;;;;;;;8.95;2.60;;;9.30;99.90;;;;;;5025367;28;20731;-39
2023/04/26 09:32:51;;;;;;;6.05;2.55;;;9.30;99.90;;;;;;4917999;28;20066;-37
2023/04/26 09:35:38;;;;;;;6.93;2.78;;;9.10;99.90;;;;;;4935692;28;20071;-41
2023/04/26 09:38:05;;;;;;;6.60;2.85;;;9.20;99.90;;;;;;4946214;28;20125;-43
2023/04/26 09:40:36;;;;;;;5.32;2.67;;;9.20;99.90;;;;;;4946982;28;20460;-41
2023/04/26 09:43:07;;;;;;;6.60;2.60;;;9.50;99.90;;;;;;4930792;28;20060;-38
2023/04/26 09:45:49;;;;;;;6.65;2.75;;;9.60;99.90;;;;;;4935292;28;20062;-41
2023/04/26 09:48:15;;;;;;;7.25;2.42;;;9.70;99.90;;;;;;4933297;28;20051;-36
2023/04/26 09:50:43;;;;;;;6.22;2.45;;;9.70;99.90;;;;;;4933423;28;20129;-40
2023/04/26 09:53:09;;;;;;;9.02;2.85;;;9.80;99.90;;;;;;4900082;28;20441;-45
2023/04/26 09:55:35;;;;;;;6.38;2.53;;;9.90;99.90;;;;;;4919614;29;20137;-44
2023/04/26 09:58:11;;;;;;;5.68;2.40;;;10.00;99.90;;;;;;4932404;28;20039;-42
2023/04/26 10:00:40;;;;;;;6.50;2.70;;;10.00;99.90;;;;;;4935089;28;20047;-42
2023/04/26 10:03:08;;;;;;;7.60;2.72;;;10.10;99.90;;;;;;4934505;28;20080;-40
2023/04/26 10:05:36;;;;;;;7.70;2.45;;;10.40;99.90;;;;;;4917243;29;20430;-43
2023/04/26 10:08:02;;;;;;;7.05;2.90;;;10.60;99.90;;;;;;4969332;28;20053;-40
2023/04/26 10:10:30;;;;;;;6.97;2.38;;;10.90;99.90;;;;;;5035455;28;20320;-41
2023/04/26 10:12:56;;;;;;;8.38;3.05;;;11.00;99.90;;;;;;5034219;28;20901;-41
2023/04/26 10:15:22;;;;;;;6.45;2.65;;;11.10;99.90;;;;;;5033691;28;20049;-39
2023/04/26 10:17:47;;;;;;;9.18;2.70;;;11.30;99.90;;;;;;5034092;28;20187;-37
2023/04/26 10:20:17;;;;;;;8.23;2.70;;;11.30;99.90;;;;;;5034661;28;20458;-44
2023/04/26 10:22:49;;;;;;;5.95;2.70;;;11.50;99.90;;;;;;5033085;28;20557;-38
2023/04/26 10:25:14;;;;;;;8.75;2.45;;;11.60;99.90;;;;;;5033985;28;20049;-42
2023/04/26 10:27:43;;;;;;;6.25;2.80;;;11.70;99.90;;;;;;5034144;28;20507;-41
2023/04/26 10:30:14;;;;;;;9.30;2.63;;;11.60;99.90;;;;;;5047336;28;20037;-45
2023/04/26 10:32:54;;;;;;;8.00;2.85;;;11.50;99.90;;;;;;5033956;28;20043;-43
2023/04/26 10:35:21;;;;;;;6.93;2.70;;;11.40;99.90;;;;;;5031796;28;20050;-39
2023/04/26 10:37:59;;;;;;;10.85;3.42;;;11.20;99.90;;;;;;5033502;28;20029;-36
2023/04/26 10:40:26;;;;;;;8.85;3.65;;;10.90;99.90;;;;;;5035430;28;20040;-41
2023/04/26 10:43:14;;;;;;;8.85;2.45;;;10.60;99.90;;;;;;5038972;28;20601;-38
2023/04/26 10:45:42;;;;;;;7.03;2.80;;;10.30;99.90;;;;;;5037984;28;20076;-40
2023/04/26 10:48:31;;;;;;;5.20;2.40;;;10.10;99.90;;;;;;5037245;28;20044;-36
2023/04/26 10:51:00;;;;;;;7.80;3.30;;;10.00;99.90;;;;;;5038238;28;20049;-43
2023/04/26 10:53:30;;;;;;;7.90;3.28;;;9.90;99.90;;;;;;5036970;28;20384;-46
2023/04/26 10:55:56;;;;;;;6.65;2.95;;;10.00;99.90;;;;;;5037683;28;20045;-46
2023/04/26 10:58:32;;;;;;;7.05;2.95;;;10.10;99.90;;;;;;5023953;28;20041;-42
2023/04/26 11:01:17;;;;;;;8.15;3.15;;;10.20;99.90;;;;;;5031444;28;20431;-36
2023/04/26 11:04:06;;;;;;;5.65;2.95;;;10.20;99.90;;;;;;5036786;28;20136;-42
2023/04/26 11:06:52;;;;;;;6.15;3.00;;;10.00;99.90;;;;;;5038089;28;20053;-39
2023/04/26 11:09:38;;;;;;;5.95;3.05;;;10.00;99.90;;;;;;5037451;28;20068;-40
2023/04/26 11:12:13;;;;;;;7.38;3.13;;;9.90;99.90;;;;;;5026417;28;20041;-42
2023/04/26 11:14:43;;;;;;;6.70;3.05;;;9.80;99.90;;;;;;5036392;28;20059;-46
2023/04/26 11:17:09;;;;;;;5.85;3.70;;;9.80;99.90;;;;;;5025910;28;20048;-40
2023/04/26 11:19:35;;;;;;;7.47;3.35;;;9.80;99.90;;;;;;5035965;28;20048;-43
2023/04/26 11:22:02;;;;;;;7.28;3.10;;;9.80;99.90;;;;;;5051900;28;20053;-40
2023/04/26 11:24:32;;;;;;;5.80;2.63;;;9.60;99.90;;;;;;5034210;28;20135;-43
2023/04/26 11:26:58;;;;;;;7.05;2.80;;;9.40;99.90;;;;;;5033392;28;20037;-40
2023/04/26 11:29:25;;;;;;;8.23;3.10;;;9.30;99.90;;;;;;5031526;28;20064;-43
2023/04/26 11:31:56;;;;;;;6.70;3.00;;;9.30;99.90;;;;;;5048942;28;20415;-41
2023/04/26 11:34:42;;;;;;;4.45;2.67;;;9.10;99.90;;;;;;5036945;28;20060;-43
2023/04/26 11:37:08;;;;;;;9.13;3.15;;;9.00;99.90;;;;;;5037805;28;20049;-42
2023/04/26 11:39:35;;;;;;;7.75;3.10;;;8.90;99.90;;;;;;5036990;28;20511;-38
2023/04/26 11:42:09;;;;;;;6.95;3.30;;;9.00;99.90;;;;;;5023488;28;20135;-44
2023/04/26 11:44:36;;;;;;;7.32;3.20;;;9.00;99.90;;;;;;5035631;28;20041;-44
2023/04/26 11:47:03;;;;;;;6.68;2.80;;;8.90;99.90;;;;;;5023171;28;20468;-40
2023/04/26 11:49:30;;;;;;;4.15;2.50;;;8.80;99.90;;;;;;5033823;28;20045;-44
2023/04/26 11:51:57;;;;;;;7.90;2.75;;;8.70;99.90;;;;;;5030932;28;20052;-45
2023/04/26 11:54:30;;;;;;;7.75;3.00;;;8.80;99.90;;;;;;5043982;28;20045;-36
2023/04/26 11:56:56;;;;;;;;;;;8.90;99.90;;;;;;5024584;28;20049;-46
2023/04/26 11:59:26;;;;;;;7.70;2.80;;;8.90;99.90;;;;;;5027895;28;19929;-38
2023/04/26 12:01:52;;;;;;;5.68;2.60;;;9.10;99.90;;;;;;5036806;28;20478;-44
2023/04/26 12:04:18;;;;;;;5.10;2.58;;;9.20;99.90;;;;;;5035115;28;20127;-37
2023/04/26 12:06:46;;;;;;;6.50;3.20;;;9.30;99.90;;;;;;5022986;28;20060;-40
2023/04/26 12:09:12;;;;;;;4.78;3.35;;;9.50;99.90;;;;;;5034236;28;20153;-42
2023/04/26 12:11:40;;;;;;;4.95;2.83;;;9.70;99.90;;;;;;5024313;28;20053;-40
2023/04/26 12:14:10;;;;;;;8.90;3.13;;;9.90;99.90;;;;;;5036083;28;20425;-41
2023/04/26 12:16:36;;;;;;;5.65;2.53;;;10.00;99.90;;;;;;5036934;28;20052;-46
2023/04/26 12:19:06;;;;;;;5.60;2.90;;;10.10;99.90;;;;;;5035451;28;20045;-45
2023/04/26 12:21:42;;;;;;;10.70;3.10;;;10.20;99.90;;;;;;5034481;28;20044;-43
2023/04/26 12:24:32;;;;;;;7.82;2.80;;;10.30;99.90;;;;;;5018478;28;20558;-40
2023/04/26 12:26:58;;;;;;;9.50;3.50;;;10.40;99.90;;;;;;5029541;28;20510;-46
2023/04/26 12:29:23;;;;;;;7.38;2.95;;;10.40;99.90;;;;;;5028810;28;20133;-39
2023/04/26 12:31:49;;;;;;;7.55;2.63;;;10.40;99.90;;;;;;5016442;28;20085;-40
2023/04/26 12:34:15;;;;;;;9.18;3.38;;;10.50;99.90;;;;;;5031107;28;20053;-40
2023/04/26 12:36:43;;;;;;;7.93;2.90;;;10.40;99.90;;;;;;5019550;28;20048;-45
2023/04/26 12:39:10;;;;;;;8.43;2.60;;;10.40;99.90;;;;;;5025874;28;20638;-38
2023/04/26 12:41:35;;;;;;;6.35;2.60;;;10.50;99.90;;;;;;5028837;28;20060;-44
2023/04/26 12:44:01;;;;;;;6.55;2.25;;;10.60;99.90;;;;;;5014423;28;20125;-45
2023/04/26 12:46:27;;;;;;;4.78;2.10;;;10.70;99.90;;;;;;5017165;28;20137;-44
2023/04/26 12:48:53;;;;;;;8.63;2.47;;;11.00;99.90;;;;;;5027370;28;20067;-36
2023/04/26 12:51:19;;;;;;;5.47;2.22;;;11.20;99.90;;;;;;5031409;28;20041;-36
2023/04/26 12:53:45;;;;;;;7.38;2.28;;;11.50;99.90;;;;;;5032984;28;20111;-42
2023/04/26 12:56:10;;;;;;;7.25;2.47;;;11.80;99.90;;;;;;5034081;28;20060;-42